createdAt,value
2022-12-19T00:02:03.828Z,68.89
2022-12-19T00:03:13.946Z,69.02
2022-12-19T00:04:23.123Z,69.09
2022-12-19T00:17:45.688Z,69.37
2022-12-19T00:20:14.684Z,69.28
2022-12-19T00:22:45.620Z,69.82
2022-12-19T00:23:55.044Z,69.87
2022-12-19T00:25:04.844Z,69.78
2022-12-19T00:27:36.704Z,69.82
2022-12-19T00:30:06.396Z,70.50
2022-12-19T00:31:18.810Z,69.51
2022-12-19T00:32:30.125Z,69.75
2022-12-19T00:33:43.309Z,69.98
2022-12-19T00:34:50.952Z,70.12
2022-12-19T00:36:51.262Z,69.97
2022-12-19T00:38:01.647Z,69.76
2022-12-19T00:39:11.192Z,69.77
2022-12-19T00:40:21.506Z,69.44
2022-12-19T00:41:35.087Z,69.74
2022-12-19T00:42:48.651Z,69.92
2022-12-19T00:43:58.229Z,70.04
2022-12-19T00:45:07.082Z,70.31
2022-12-19T00:47:33.063Z,70.22
2022-12-19T00:48:42.207Z,69.66
2022-12-19T00:49:51.106Z,69.77
2022-12-19T00:51:08.163Z,69.68
2022-12-19T00:52:17.987Z,69.10
2022-12-19T00:53:26.581Z,69.25
2022-12-19T00:54:36.170Z,69.47
2022-12-19T00:55:46.776Z,69.70
2022-12-19T00:56:55.625Z,69.57
2022-12-19T00:58:05.439Z,69.55
2022-12-19T00:59:14.336Z,69.61
2022-12-19T01:00:26.685Z,69.32
2022-12-19T01:01:42.125Z,69.36
2022-12-19T01:02:53.682Z,69.38
2022-12-19T01:05:17.355Z,69.84
2022-12-19T01:06:27.707Z,70.05
2022-12-19T01:07:37.242Z,70.23
2022-12-19T01:08:45.875Z,70.13
2022-12-19T01:09:56.287Z,70.15
2022-12-19T01:12:46.573Z,69.82
2022-12-19T01:13:56.108Z,69.78
2022-12-19T01:16:22.157Z,68.18
2022-12-19T01:18:48.297Z,67.84
2022-12-19T01:19:57.268Z,68.30
2022-12-19T01:21:09.175Z,68.30
2022-12-19T01:22:19.109Z,68.33
2022-12-19T01:23:28.725Z,67.76
2022-12-19T01:25:54.874Z,68.76
2022-12-19T01:27:04.229Z,68.48
2022-12-19T01:29:34.585Z,69.35
2022-12-19T01:30:44.652Z,69.25
2022-12-19T01:31:54.467Z,69.76
2022-12-19T01:33:03.256Z,69.83
2022-12-19T01:35:29.721Z,70.52
2022-12-19T01:36:39.787Z,70.33
2022-12-19T01:39:08.367Z,70.51
2022-12-19T01:40:20.563Z,70.04
2022-12-19T01:41:31.496Z,69.41
2022-12-19T01:42:41.002Z,69.15
2022-12-19T01:45:20.492Z,67.33
2022-12-19T01:46:42.710Z,67.71
2022-12-19T01:47:59.302Z,68.30
2022-12-19T01:49:25.155Z,68.50
2022-12-19T01:51:00.814Z,68.45
2022-12-19T01:52:12.887Z,68.19
2022-12-19T01:54:40.852Z,68.08
2022-12-19T01:55:49.590Z,68.38
2022-12-19T01:57:03.306Z,68.45
2022-12-19T01:58:14.701Z,68.66
2022-12-19T01:59:30.522Z,68.69
2022-12-19T02:00:43.590Z,69.08
2022-12-19T02:03:27.551Z,69.39
2022-12-19T02:06:02.273Z,70.30
2022-12-19T02:07:16.018Z,70.57
2022-12-19T02:08:23.769Z,70.45
2022-12-19T02:09:34.118Z,70.13
2022-12-19T02:12:18.723Z,69.35
2022-12-19T02:13:30.004Z,68.44
2022-12-19T02:14:40.228Z,68.75
2022-12-19T06:19:59.121Z,75.44
2022-12-19T06:22:27.017Z,75.28
2022-12-19T06:23:36.444Z,74.57
2022-12-19T06:24:47.397Z,74.24
2022-12-19T06:25:58.745Z,72.61
2022-12-19T06:27:08.677Z,71.57
2022-12-19T06:28:18.343Z,70.66
2022-12-19T06:29:26.956Z,70.45
2022-12-19T06:30:35.764Z,70.44
2022-12-19T06:31:45.179Z,69.52
2022-12-19T06:32:54.771Z,68.86
2022-12-19T06:34:05.060Z,68.88
2022-12-19T06:35:14.270Z,68.23
2022-12-19T06:36:29.933Z,68.81
2022-12-19T06:37:39.761Z,68.35
2022-12-19T06:40:06.949Z,67.04
2022-12-19T06:41:35.968Z,67.79
2022-12-19T06:42:47.219Z,68.52
2022-12-19T06:44:01.055Z,67.84
2022-12-19T06:45:10.913Z,67.44
2022-12-19T06:46:19.489Z,67.54
2022-12-19T06:47:28.563Z,67.95
2022-12-19T06:48:37.173Z,68.03
2022-12-19T06:49:50.629Z,68.12
2022-12-19T06:52:16.629Z,68.00
2022-12-19T06:53:25.617Z,67.77
2022-12-19T06:54:34.480Z,68.00
2022-12-19T06:55:45.752Z,67.14
2022-12-19T06:56:54.666Z,67.47
2022-12-19T06:58:03.869Z,67.83
2022-12-19T06:59:16.568Z,67.80
2022-12-19T07:00:27.059Z,67.72
2022-12-19T07:01:43.763Z,67.67
2022-12-19T07:02:54.700Z,67.60
2022-12-19T07:04:04.212Z,67.63
2022-12-19T07:05:14.167Z,67.77
2022-12-19T07:06:23.756Z,67.43
2022-12-19T07:07:33.794Z,66.93
2022-12-19T07:08:43.235Z,67.80
2022-12-19T07:09:53.088Z,67.52
2022-12-19T07:11:01.880Z,67.97
2022-12-19T07:12:11.593Z,67.61
2022-12-19T07:13:20.416Z,67.29
2022-12-19T07:14:29.260Z,67.53
2022-12-19T07:15:38.737Z,67.67
2022-12-19T07:18:08.533Z,67.57
2022-12-19T07:19:19.066Z,67.69
2022-12-19T07:20:31.074Z,67.23
2022-12-19T07:21:41.636Z,67.22
2022-12-19T07:22:51.220Z,67.31
2022-12-19T07:25:18.261Z,67.04
2022-12-19T07:26:27.812Z,66.96
2022-12-19T07:27:39.361Z,66.46
2022-12-19T07:28:48.435Z,66.26
2022-12-19T07:29:56.957Z,66.26
2022-12-19T07:31:07.057Z,65.88
2022-12-19T07:32:16.133Z,65.68
2022-12-19T07:33:24.755Z,65.40
2022-12-19T07:34:33.408Z,66.03
2022-12-19T07:35:42.951Z,66.57
2022-12-19T07:36:52.354Z,66.84
2022-12-19T07:38:06.977Z,66.88
2022-12-19T07:39:16.903Z,66.82
2022-12-19T07:41:42.192Z,66.41
2022-12-19T07:42:53.155Z,66.10
2022-12-19T07:45:17.031Z,66.20
2022-12-19T07:46:29.233Z,65.75
2022-12-19T07:47:38.039Z,65.49
2022-12-19T07:48:46.707Z,64.72
2022-12-19T07:49:55.771Z,65.20
2022-12-19T07:51:05.833Z,65.35
2022-12-19T07:52:14.448Z,65.41
2022-12-19T07:53:25.368Z,64.86
2022-12-19T07:54:35.545Z,65.40
2022-12-19T07:55:45.181Z,65.18
2022-12-19T07:56:54.995Z,65.39
2022-12-19T07:58:03.645Z,65.31
2022-12-19T07:59:13.455Z,65.21
2022-12-19T08:00:23.441Z,65.52
2022-12-19T08:01:32.285Z,65.36
2022-12-19T08:02:42.389Z,65.52
2022-12-19T08:03:52.403Z,65.14
2022-12-19T08:05:05.330Z,65.22
2022-12-19T08:06:13.842Z,64.86
2022-12-19T08:08:40.337Z,65.30
2022-12-19T08:09:49.271Z,64.91
2022-12-19T08:11:21.952Z,64.98
2022-12-19T08:12:33.357Z,64.93
2022-12-19T08:13:46.479Z,65.09
2022-12-19T08:14:57.440Z,64.15
2022-12-19T08:16:08.583Z,64.59
2022-12-19T08:17:21.357Z,64.60
2022-12-19T08:18:27.751Z,64.70
2022-12-19T08:19:36.916Z,64.75
2022-12-19T08:20:46.449Z,64.85
2022-12-19T08:21:56.081Z,65.09
2022-12-19T08:23:05.846Z,64.50
2022-12-19T08:24:15.871Z,64.01
2022-12-19T08:25:26.710Z,64.84
2022-12-19T08:26:40.627Z,64.57
2022-12-19T08:27:46.501Z,64.82
2022-12-19T08:28:58.672Z,65.03
2022-12-19T08:30:08.954Z,65.05
2022-12-19T08:31:18.806Z,64.71
2022-12-19T08:32:31.501Z,64.22
2022-12-19T08:33:40.520Z,64.80
2022-12-19T08:34:51.296Z,64.75
2022-12-19T08:37:23.543Z,65.08
2022-12-19T08:38:32.584Z,65.09
2022-12-19T08:39:42.793Z,64.97
2022-12-19T08:40:54.629Z,65.09
2022-12-19T08:42:03.724Z,65.18
2022-12-19T08:43:12.690Z,65.16
2022-12-19T08:44:24.088Z,64.77
2022-12-19T08:45:33.079Z,64.65
2022-12-19T08:46:46.545Z,64.55
2022-12-19T08:47:53.345Z,64.71
2022-12-19T08:49:02.997Z,64.61
2022-12-19T08:50:11.837Z,64.36
2022-12-19T08:51:20.870Z,64.95
2022-12-19T08:52:29.356Z,64.49
2022-12-19T08:53:40.967Z,63.40
2022-12-19T08:54:49.479Z,64.02
2022-12-19T08:56:02.181Z,63.97
2022-12-19T08:57:10.824Z,64.41
2022-12-19T08:58:19.643Z,64.68
2022-12-19T08:59:31.769Z,64.17
2022-12-19T09:00:39.075Z,64.50
2022-12-19T09:01:48.289Z,64.21
2022-12-19T09:05:57.291Z,64.55
2022-12-19T09:06:01.519Z,64.59
2022-12-19T09:06:34.454Z,64.47
2022-12-19T09:07:43.415Z,63.65
2022-12-19T09:08:52.914Z,63.65
2022-12-19T09:10:03.770Z,63.95
2022-12-19T09:11:16.504Z,64.54
2022-12-19T09:12:25.240Z,64.39
2022-12-19T09:14:51.851Z,64.11
2022-12-19T09:16:03.008Z,64.38
2022-12-19T09:17:12.721Z,64.22
2022-12-19T09:18:24.271Z,64.42
2022-12-19T09:19:33.059Z,63.83
2022-12-19T09:20:42.308Z,64.09
2022-12-19T09:21:50.920Z,63.75
2022-12-19T09:23:01.571Z,63.64
2022-12-19T09:24:11.224Z,62.73
2022-12-19T09:25:20.502Z,62.22
2022-12-19T09:26:33.732Z,61.82
2022-12-19T09:28:57.141Z,62.57
2022-12-19T09:30:07.836Z,62.79
2022-12-19T09:32:35.352Z,63.32
2022-12-19T09:33:45.098Z,63.08
2022-12-19T09:34:54.093Z,62.74
2022-12-19T09:36:04.681Z,62.57
2022-12-19T09:37:16.696Z,63.05
2022-12-19T09:39:41.267Z,63.42
2022-12-19T09:42:41.280Z,62.99
2022-12-19T09:44:10.291Z,63.04
2022-12-19T09:46:58.736Z,62.61
2022-12-19T09:48:24.656Z,62.70
2022-12-19T09:49:36.952Z,62.61
2022-12-19T09:51:09.601Z,62.29
2022-12-19T09:52:23.185Z,62.30
2022-12-19T09:53:38.811Z,62.03
2022-12-19T09:55:18.144Z,61.90
2022-12-19T09:56:34.017Z,61.86
2022-12-19T09:58:10.860Z,61.76
2022-12-19T10:01:00.221Z,61.47
2022-12-19T14:36:09.709Z,67.33
2022-12-19T14:36:12.267Z,66.44
2022-12-19T14:39:22.760Z,66.77
2022-12-19T14:39:26.778Z,66.42
2022-12-19T14:41:49.164Z,65.44
2022-12-19T14:43:59.201Z,65.25
2022-12-19T14:52:34.839Z,65.52
2022-12-19T14:54:18.276Z,65.08
2022-12-19T14:56:11.441Z,63.93
2022-12-19T14:58:50.803Z,64.24
2022-12-19T14:58:57.513Z,64.34
2022-12-19T15:01:07.599Z,64.46
2022-12-19T15:01:39.309Z,64.50
2022-12-19T15:02:48.851Z,64.37
2022-12-19T15:04:51.738Z,64.36
2022-12-19T15:05:19.259Z,64.99
2022-12-19T15:07:49.271Z,64.19
2022-12-19T15:11:00.304Z,64.38
2022-12-19T15:11:08.943Z,64.63
2022-12-19T15:12:56.508Z,64.61
2022-12-19T15:14:47.324Z,65.09
2022-12-19T15:14:51.991Z,65.16
2022-12-19T15:16:01.952Z,64.96
2022-12-19T15:17:23.826Z,64.75
2022-12-19T15:18:39.326Z,64.77
2022-12-19T15:19:49.354Z,65.02
2022-12-19T15:21:01.401Z,64.74
2022-12-19T15:22:10.126Z,65.26
2022-12-19T15:23:22.252Z,65.68
2022-12-19T15:24:30.210Z,65.05
2022-12-19T15:26:03.265Z,65.08
2022-12-19T15:26:53.250Z,65.06
2022-12-19T15:28:02.757Z,65.06
2022-12-19T15:30:32.113Z,65.62
2022-12-19T15:31:44.081Z,65.36
2022-12-19T15:32:53.948Z,65.86
2022-12-19T15:35:27.766Z,66.43
2022-12-19T15:36:37.375Z,66.46
2022-12-19T15:37:46.502Z,66.71
2022-12-19T15:38:55.193Z,66.74
2022-12-19T15:40:06.433Z,66.83
2022-12-19T15:41:19.722Z,66.50
2022-12-19T15:42:28.479Z,66.23
2022-12-19T15:44:03.228Z,66.03
2022-12-19T15:44:49.052Z,66.01
2022-12-19T15:45:59.671Z,65.87
2022-12-19T15:47:18.469Z,65.75
2022-12-19T15:48:27.351Z,65.70
2022-12-19T15:49:36.321Z,65.81
2022-12-19T15:50:45.455Z,65.53
2022-12-19T15:51:56.218Z,65.34
2022-12-19T15:53:14.143Z,64.96
2022-12-19T15:54:48.037Z,65.10
2022-12-19T15:55:31.364Z,64.65
2022-12-19T15:58:05.758Z,65.05
2022-12-19T15:59:37.218Z,65.36
2022-12-19T16:00:46.069Z,65.64
2022-12-19T16:01:57.256Z,66.01
2022-12-19T16:03:25.579Z,65.97
2022-12-19T16:05:34.866Z,64.58
2022-12-19T16:06:46.363Z,64.78
2022-12-19T16:07:56.411Z,65.13
2022-12-19T16:10:34.753Z,65.45
2022-12-19T16:11:45.532Z,65.40
2022-12-19T16:12:57.168Z,65.41
2022-12-19T16:14:06.331Z,65.47
2022-12-19T16:15:21.830Z,65.87
2022-12-19T16:16:31.482Z,65.71
2022-12-19T16:17:41.455Z,65.14
2022-12-19T16:18:50.437Z,65.42
2022-12-19T16:19:59.053Z,66.00
2022-12-19T16:21:20.336Z,66.14
2022-12-19T16:22:29.916Z,66.01
2022-12-19T16:23:38.835Z,65.45
2022-12-19T16:24:48.386Z,65.98
2022-12-19T16:25:59.301Z,66.14
2022-12-19T16:27:12.645Z,66.27
2022-12-19T16:29:43.164Z,65.31
2022-12-19T16:30:52.895Z,65.40
2022-12-19T16:32:02.749Z,64.89
2022-12-19T16:33:18.755Z,64.82
2022-12-19T16:34:28.497Z,64.71
2022-12-19T16:36:52.928Z,65.49
2022-12-19T16:38:02.579Z,65.45
2022-12-19T16:39:12.383Z,65.70
2022-12-19T16:40:24.985Z,65.96
2022-12-19T16:41:42.625Z,64.95
2022-12-19T16:43:56.654Z,65.46
2022-12-19T16:45:08.412Z,65.18
2022-12-19T16:47:38.256Z,64.55
2022-12-19T16:48:47.864Z,64.50
2022-12-19T16:49:56.398Z,63.98
2022-12-19T16:51:10.152Z,63.57
2022-12-19T16:52:19.108Z,63.25
2022-12-19T16:53:29.731Z,62.80
2022-12-19T16:54:39.259Z,62.31
2022-12-19T16:55:49.922Z,62.29
2022-12-19T16:57:06.604Z,62.43
2022-12-19T16:59:40.320Z,62.32
2022-12-19T17:00:53.052Z,62.42
2022-12-19T17:02:03.995Z,62.13
2022-12-19T17:03:35.705Z,62.29
2022-12-19T17:06:00.833Z,62.36
2022-12-19T17:07:11.338Z,62.45
2022-12-19T17:08:20.122Z,62.56
2022-12-19T17:09:29.009Z,62.77
2022-12-19T17:10:41.357Z,62.94
2022-12-19T17:11:59.880Z,63.22
2022-12-19T17:13:10.843Z,62.75
2022-12-19T17:14:24.132Z,62.20
2022-12-19T17:15:36.242Z,63.08
2022-12-19T17:16:46.168Z,63.28
2022-12-19T17:17:58.740Z,63.53
2022-12-19T17:21:52.932Z,63.48
2022-12-19T17:23:02.443Z,64.11
2022-12-19T17:24:14.376Z,64.85
2022-12-19T17:25:27.329Z,65.30
2022-12-19T17:26:35.976Z,65.69
2022-12-19T17:27:45.132Z,64.94
2022-12-19T17:28:56.332Z,64.43
2022-12-19T17:31:29.204Z,63.90
2022-12-19T17:32:39.550Z,64.63
2022-12-19T17:33:48.956Z,65.21
2022-12-19T17:34:58.091Z,64.63
2022-12-19T17:36:11.670Z,65.18
2022-12-19T17:37:21.346Z,65.45
2022-12-19T17:38:30.044Z,65.39
2022-12-19T17:39:41.578Z,65.79
2022-12-19T17:40:50.580Z,64.92
2022-12-19T17:42:03.254Z,65.40
2022-12-19T17:43:13.846Z,65.59
2022-12-19T17:44:22.673Z,65.88
2022-12-19T17:45:33.642Z,65.77
2022-12-19T17:46:43.719Z,65.92
2022-12-19T17:48:00.312Z,66.29
2022-12-19T17:50:27.904Z,66.17
2022-12-19T17:51:37.122Z,66.02
2022-12-19T17:52:46.692Z,66.35
2022-12-19T17:53:55.697Z,66.07
2022-12-19T17:55:15.566Z,66.11
2022-12-19T17:56:24.133Z,65.70
2022-12-19T17:57:34.010Z,65.79
2022-12-19T17:58:43.026Z,65.65
2022-12-19T18:01:22.185Z,65.65
2022-12-19T18:02:31.330Z,65.67
2022-12-19T18:03:40.363Z,65.48
2022-12-19T18:04:51.808Z,65.37
2022-12-19T18:06:02.570Z,65.09
2022-12-19T18:07:15.912Z,65.58
2022-12-19T18:08:28.232Z,65.77
2022-12-19T18:09:37.331Z,65.79
2022-12-19T18:10:46.465Z,66.08
2022-12-19T18:11:55.982Z,66.01
2022-12-19T18:13:05.096Z,65.51
2022-12-19T18:14:14.599Z,65.83
2022-12-19T18:15:25.643Z,65.97
2022-12-19T18:16:36.105Z,66.07
2022-12-19T18:19:05.215Z,65.24
2022-12-19T18:20:21.212Z,65.83
2022-12-19T18:21:31.140Z,66.73
2022-12-19T18:22:40.199Z,66.53
2022-12-19T18:23:49.176Z,65.62
2022-12-19T18:26:14.171Z,66.03
2022-12-19T18:27:24.447Z,66.82
2022-12-19T18:29:48.169Z,66.45
2022-12-19T18:32:20.937Z,67.26
2022-12-19T18:33:32.832Z,67.64
2022-12-19T18:34:42.096Z,68.52
2022-12-19T18:35:52.100Z,69.87
2022-12-19T18:37:02.157Z,69.78
2022-12-19T18:39:36.701Z,69.94
2022-12-19T18:40:46.502Z,69.89
2022-12-19T18:41:55.600Z,69.60
2022-12-19T18:43:05.326Z,69.72
2022-12-19T18:45:47.851Z,70.02
2022-12-19T18:46:59.588Z,70.18
2022-12-19T18:48:21.811Z,70.14
2022-12-19T18:49:33.465Z,70.37
2022-12-19T18:50:43.165Z,69.88
2022-12-19T18:51:52.733Z,69.50
2022-12-19T18:53:01.779Z,69.43
2022-12-19T18:54:20.434Z,69.13
2022-12-19T18:55:32.665Z,68.64
2022-12-19T18:56:41.745Z,67.83
2022-12-19T18:57:51.445Z,67.36
2022-12-19T18:59:03.356Z,67.70
2022-12-19T19:00:19.227Z,67.55
2022-12-19T19:01:28.954Z,67.92
2022-12-19T19:02:43.573Z,68.54
2022-12-19T19:03:59.631Z,68.99
2022-12-19T19:05:18.629Z,69.30
2022-12-19T19:06:34.269Z,69.00
2022-12-19T19:07:42.104Z,69.34
2022-12-19T19:08:53.088Z,69.52
2022-12-19T19:10:28.793Z,70.06
2022-12-19T19:11:39.352Z,70.43
2022-12-19T19:12:50.068Z,70.65
2022-12-19T19:13:59.039Z,70.32
2022-12-19T19:15:08.429Z,70.25
2022-12-19T19:16:27.257Z,70.12
2022-12-19T19:17:38.047Z,70.16
2022-12-19T19:18:51.811Z,69.03
2022-12-19T19:20:02.478Z,68.68
2022-12-19T19:22:29.572Z,67.87
2022-12-19T19:24:59.032Z,68.36
2022-12-19T19:26:08.353Z,69.58
2022-12-19T19:27:17.097Z,70.16
2022-12-19T19:28:25.633Z,70.38
2022-12-19T19:29:34.447Z,70.25
2022-12-19T19:30:44.738Z,70.55
2022-12-19T19:31:54.288Z,70.54
2022-12-19T19:33:10.674Z,70.57
2022-12-19T19:34:29.682Z,70.64
2022-12-19T19:36:58.575Z,69.87
2022-12-19T19:38:08.698Z,69.47
2022-12-19T19:39:19.683Z,68.94
2022-12-19T19:40:30.315Z,69.28
2022-12-19T19:41:39.101Z,68.81
2022-12-19T19:42:48.644Z,68.51
2022-12-19T19:45:15.413Z,69.98
2022-12-19T19:46:24.447Z,70.22
2022-12-19T19:48:51.125Z,70.35
2022-12-19T19:49:59.722Z,70.46
2022-12-19T19:51:09.414Z,70.54
2022-12-19T19:52:18.456Z,69.82
2022-12-19T19:53:28.042Z,69.65
2022-12-19T19:54:36.888Z,69.50
2022-12-19T19:55:47.435Z,69.44
2022-12-19T19:56:56.699Z,70.02
2022-12-19T19:58:06.440Z,69.98
2022-12-19T19:59:15.738Z,71.75
2022-12-19T20:00:24.680Z,72.09
2022-12-19T20:01:35.862Z,72.75
2022-12-19T20:02:45.553Z,72.81
2022-12-19T20:03:54.401Z,72.26
2022-12-19T20:05:03.516Z,72.07
2022-12-19T20:06:12.618Z,71.95
2022-12-19T20:07:21.608Z,70.79
2022-12-19T20:08:38.621Z,70.86
2022-12-19T20:09:42.000Z,70.63
2022-12-19T20:10:55.418Z,69.83
2022-12-19T20:12:05.273Z,69.53
2022-12-19T20:13:15.105Z,69.46
2022-12-19T20:14:24.068Z,68.70
2022-12-19T20:16:50.862Z,69.34
2022-12-19T20:17:59.378Z,69.40
2022-12-19T20:19:08.016Z,69.73
2022-12-19T20:20:17.371Z,69.85
2022-12-19T20:21:26.904Z,70.76
2022-12-19T20:22:36.660Z,71.12
2022-12-19T20:23:46.819Z,70.93
2022-12-19T20:24:55.843Z,71.10
2022-12-19T20:27:24.826Z,70.70
2022-12-19T20:28:34.151Z,71.28
2022-12-19T20:29:43.006Z,71.37
2022-12-19T20:30:51.707Z,71.15
2022-12-19T20:32:00.468Z,70.36
2022-12-19T20:33:10.169Z,69.67
2022-12-19T20:34:22.151Z,69.22
2022-12-19T20:35:30.975Z,69.31
2022-12-19T20:36:40.723Z,69.31
2022-12-19T20:37:49.841Z,68.83
2022-12-19T20:38:58.859Z,68.91
2022-12-19T20:40:08.845Z,69.88
2022-12-19T20:41:18.312Z,69.96
2022-12-19T20:42:27.710Z,70.01
2022-12-19T20:43:38.100Z,70.03
2022-12-19T20:44:47.654Z,70.23
2022-12-19T20:46:06.366Z,70.16
2022-12-19T20:48:30.862Z,70.36
2022-12-19T20:50:57.070Z,70.11
2022-12-19T20:52:06.113Z,70.32
2022-12-19T20:53:16.954Z,70.06
2022-12-19T20:54:25.678Z,67.80
2022-12-19T20:55:35.381Z,68.11
2022-12-19T20:56:49.228Z,67.72
2022-12-19T20:57:58.609Z,66.73
2022-12-19T21:00:23.026Z,64.82
2022-12-19T21:01:32.666Z,65.57
2022-12-19T21:03:24.907Z,66.08
2022-12-19T21:03:53.560Z,64.99
2022-12-19T21:05:02.675Z,65.00
2022-12-19T21:06:13.941Z,65.74
2022-12-19T21:07:24.202Z,66.43
2022-12-19T21:08:34.696Z,66.63
2022-12-19T21:09:45.116Z,67.06
2022-12-19T21:10:54.562Z,67.54
2022-12-19T21:12:05.259Z,67.83
2022-12-19T21:13:14.767Z,68.11
2022-12-19T21:14:23.943Z,67.75
2022-12-19T21:15:34.791Z,66.64
2022-12-19T21:16:44.314Z,66.70
2022-12-19T21:17:53.863Z,66.69
2022-12-19T21:19:03.530Z,67.21
2022-12-19T21:20:14.638Z,67.42
